Accueil
METAR-TAF:

METAR-TAF

Aéroports :

Aéroport de Limoges-Bellegarde

Limoges, France

latitude: 45-52N, longitude: 001-11E, altitude: 396 m

Observation

Le bulletin a été fait il y a 26 minutes, à 06:30 UTC
Vent 7 kt de nord/nord-est
Température 4°C
Humidité 93%
Pression 1017 hPa
Visibilité: 5000 m
Quelques nuages à une hauteur de 4900 ft
brume

METAR: LFBL 080630Z AUTO 03007KT 5000 BR FEW049 04/03 Q1017 NOSIG

Heure: 07:56 (06:56 UTC)

Prévision

Le bulletin a été fait il y a 19 minutes, à 06:37 UTC
Prévision valable du 08 à 06 UTC au 09 à 06 UTC
Vent 8 kt de nord/nord-est
Visibilité 10 km ou plus
Nuages épars à une hauteur de 3500 ft
Temporairement
du 08 à 06 UTC au 08 à 08 UTC
Visibilité: 3000 m
brume

TAF: LFBL 080637Z 0806/0906 03008KT 9999 SCT035 TEMPO 0806/0808 3000 BR

Observations et prévisions météorologiques de plus de 4000 aéroports (messages METAR et TAF).

Les stations disponibles sont représentées par des disques jaunes et rouges sur la carte.

Passer la souris dessus pour voir le nom de la station.

Cliquer dessus pour voir les observations et prévisions météorologiques.

Pour changer de carte: cliquez sur les boutons verts avec une croix noire pour zoomer, sur le bouton vert avec un tiret pour effectuer un zoom arrière, ou sur les flèches vertes pour les cartes adjacentes.


METAR-TAF: